Terminal Aerodrome Forecast
Issued by NWS

Home | Current Version | Previous Version | Text Only | Print | Product List | Glossary On
Versions: 1 2 3 4 5 6 7 8 9 10 11 12 13 14 15 16 17 18 19 20 21 22 23 24 25 26 27 28 29 30 31
000
FTUS45 KREV 072359 AAA
TAFCXP
TAF AMD
KCXP 072359Z 0700/0724 19012G24KT P6SM VCTS SCT060CB BKN090
     FM070300 VRB04KT P6SM FEW100 SCT150 BKN200
     FM071200 VRB03KT P6SM SKC
     FM072000 08008G18KT P6SM VCTS SCT070CB BKN100=

USA.gov is the U.S. government's official web portal to all federal, state and local government web resources and services.